sensor_id;sensor_type;location;lat;lon;timestamp;P1;durP1;ratioP1;P2;durP2;ratioP2
73296;SDS011;61524;50.938;11.396;2023-04-25T00:01:02;7.90;;;3.90;;
73296;SDS011;61524;50.938;11.396;2023-04-25T00:03:30;8.95;;;3.78;;
73296;SDS011;61524;50.938;11.396;2023-04-25T00:05:57;6.80;;;4.30;;
73296;SDS011;61524;50.938;11.396;2023-04-25T00:08:26;9.43;;;4.90;;
73296;SDS011;61524;50.938;11.396;2023-04-25T00:10:52;12.80;;;5.18;;
73296;SDS011;61524;50.938;11.396;2023-04-25T00:13:18;6.95;;;4.32;;
73296;SDS011;61524;50.938;11.396;2023-04-25T00:15:44;7.75;;;4.18;;
73296;SDS011;61524;50.938;11.396;2023-04-25T00:18:11;9.73;;;4.50;;
73296;SDS011;61524;50.938;11.396;2023-04-25T00:20:36;7.20;;;4.13;;
73296;SDS011;61524;50.938;11.396;2023-04-25T00:23:02;7.80;;;4.78;;
73296;SDS011;61524;50.938;11.396;2023-04-25T00:25:27;8.05;;;4.50;;
73296;SDS011;61524;50.938;11.396;2023-04-25T00:27:53;7.80;;;4.85;;
73296;SDS011;61524;50.938;11.396;2023-04-25T00:30:19;9.48;;;4.97;;
73296;SDS011;61524;50.938;11.396;2023-04-25T00:32:44;9.38;;;4.70;;
73296;SDS011;61524;50.938;11.396;2023-04-25T00:35:10;10.57;;;4.57;;
73296;SDS011;61524;50.938;11.396;2023-04-25T00:37:36;7.40;;;4.88;;
73296;SDS011;61524;50.938;11.396;2023-04-25T00:40:02;8.25;;;4.60;;
73296;SDS011;61524;50.938;11.396;2023-04-25T00:42:31;7.18;;;3.20;;
73296;SDS011;61524;50.938;11.396;2023-04-25T00:44:57;5.68;;;3.60;;
73296;SDS011;61524;50.938;11.396;2023-04-25T00:47:23;6.18;;;4.40;;
73296;SDS011;61524;50.938;11.396;2023-04-25T00:49:49;7.07;;;4.15;;
73296;SDS011;61524;50.938;11.396;2023-04-25T00:52:14;7.97;;;3.97;;
73296;SDS011;61524;50.938;11.396;2023-04-25T00:54:40;8.60;;;3.90;;
73296;SDS011;61524;50.938;11.396;2023-04-25T00:57:05;6.93;;;4.20;;
73296;SDS011;61524;50.938;11.396;2023-04-25T00:59:31;8.07;;;3.70;;
73296;SDS011;61524;50.938;11.396;2023-04-25T01:01:56;6.50;;;3.50;;
73296;SDS011;61524;50.938;11.396;2023-04-25T01:04:23;11.23;;;4.20;;
73296;SDS011;61524;50.938;11.396;2023-04-25T01:06:49;7.35;;;4.15;;
73296;SDS011;61524;50.938;11.396;2023-04-25T01:09:14;6.43;;;3.95;;
73296;SDS011;61524;50.938;11.396;2023-04-25T01:11:41;6.97;;;4.20;;
73296;SDS011;61524;50.938;11.396;2023-04-25T01:14:06;6.80;;;4.35;;
73296;SDS011;61524;50.938;11.396;2023-04-25T01:16:32;5.72;;;3.97;;
73296;SDS011;61524;50.938;11.396;2023-04-25T01:18:58;9.20;;;4.25;;
73296;SDS011;61524;50.938;11.396;2023-04-25T01:21:24;8.40;;;3.28;;
73296;SDS011;61524;50.938;11.396;2023-04-25T01:23:52;5.60;;;3.38;;
73296;SDS011;61524;50.938;11.396;2023-04-25T01:26:18;5.15;;;2.92;;
73296;SDS011;61524;50.938;11.396;2023-04-25T01:28:46;7.43;;;3.30;;
73296;SDS011;61524;50.938;11.396;2023-04-25T01:31:12;7.57;;;3.78;;
73296;SDS011;61524;50.938;11.396;2023-04-25T01:33:38;6.68;;;4.10;;
73296;SDS011;61524;50.938;11.396;2023-04-25T01:36:05;7.43;;;4.55;;
73296;SDS011;61524;50.938;11.396;2023-04-25T01:38:31;9.48;;;4.55;;
73296;SDS011;61524;50.938;11.396;2023-04-25T01:40:56;8.50;;;5.05;;
73296;SDS011;61524;50.938;11.396;2023-04-25T01:43:22;6.65;;;4.03;;
73296;SDS011;61524;50.938;11.396;2023-04-25T01:45:49;6.82;;;4.18;;
73296;SDS011;61524;50.938;11.396;2023-04-25T01:48:14;8.77;;;3.47;;
73296;SDS011;61524;50.938;11.396;2023-04-25T01:50:40;6.93;;;3.63;;
73296;SDS011;61524;50.938;11.396;2023-04-25T01:53:06;5.88;;;4.30;;
73296;SDS011;61524;50.938;11.396;2023-04-25T01:55:34;8.07;;;4.35;;
73296;SDS011;61524;50.938;11.396;2023-04-25T01:58:00;8.18;;;4.43;;
73296;SDS011;61524;50.938;11.396;2023-04-25T02:00:28;7.95;;;3.72;;
73296;SDS011;61524;50.938;11.396;2023-04-25T02:02:53;7.35;;;4.22;;
73296;SDS011;61524;50.938;11.396;2023-04-25T02:05:19;8.52;;;4.13;;
73296;SDS011;61524;50.938;11.396;2023-04-25T02:07:46;7.63;;;5.07;;
73296;SDS011;61524;50.938;11.396;2023-04-25T02:10:11;7.38;;;4.63;;
73296;SDS011;61524;50.938;11.396;2023-04-25T02:12:37;10.63;;;4.85;;
73296;SDS011;61524;50.938;11.396;2023-04-25T02:15:02;7.63;;;4.85;;
73296;SDS011;61524;50.938;11.396;2023-04-25T02:17:28;8.32;;;4.47;;
73296;SDS011;61524;50.938;11.396;2023-04-25T02:19:54;6.97;;;3.95;;
73296;SDS011;61524;50.938;11.396;2023-04-25T02:22:19;10.20;;;4.80;;
73296;SDS011;61524;50.938;11.396;2023-04-25T02:24:45;7.72;;;3.88;;
73296;SDS011;61524;50.938;11.396;2023-04-25T02:27:11;7.10;;;4.40;;
73296;SDS011;61524;50.938;11.396;2023-04-25T02:29:37;8.45;;;4.70;;
73296;SDS011;61524;50.938;11.396;2023-04-25T02:32:03;10.00;;;5.05;;
73296;SDS011;61524;50.938;11.396;2023-04-25T02:34:29;8.48;;;4.85;;
73296;SDS011;61524;50.938;11.396;2023-04-25T02:36:54;6.60;;;4.07;;
73296;SDS011;61524;50.938;11.396;2023-04-25T02:39:20;7.30;;;4.32;;
73296;SDS011;61524;50.938;11.396;2023-04-25T02:41:47;7.88;;;4.53;;
73296;SDS011;61524;50.938;11.396;2023-04-25T02:44:12;8.05;;;4.80;;
73296;SDS011;61524;50.938;11.396;2023-04-25T02:46:38;9.57;;;5.38;;
73296;SDS011;61524;50.938;11.396;2023-04-25T02:49:03;7.97;;;4.22;;
73296;SDS011;61524;50.938;11.396;2023-04-25T02:51:28;10.27;;;5.25;;
73296;SDS011;61524;50.938;11.396;2023-04-25T02:53:55;7.88;;;5.20;;
73296;SDS011;61524;50.938;11.396;2023-04-25T02:56:20;7.20;;;4.43;;
73296;SDS011;61524;50.938;11.396;2023-04-25T02:58:46;7.45;;;3.67;;
73296;SDS011;61524;50.938;11.396;2023-04-25T03:01:11;4.70;;;3.10;;
73296;SDS011;61524;50.938;11.396;2023-04-25T03:03:37;6.57;;;4.53;;
73296;SDS011;61524;50.938;11.396;2023-04-25T03:06:02;8.10;;;4.68;;
73296;SDS011;61524;50.938;11.396;2023-04-25T03:08:28;8.13;;;4.88;;
73296;SDS011;61524;50.938;11.396;2023-04-25T03:10:57;8.43;;;4.68;;
73296;SDS011;61524;50.938;11.396;2023-04-25T03:13:23;9.18;;;4.72;;
73296;SDS011;61524;50.938;11.396;2023-04-25T03:15:49;7.13;;;4.53;;
73296;SDS011;61524;50.938;11.396;2023-04-25T03:18:14;8.10;;;4.47;;
73296;SDS011;61524;50.938;11.396;2023-04-25T03:20:40;7.75;;;4.53;;
73296;SDS011;61524;50.938;11.396;2023-04-25T03:23:06;7.85;;;5.30;;
73296;SDS011;61524;50.938;11.396;2023-04-25T03:25:32;9.77;;;6.35;;
73296;SDS011;61524;50.938;11.396;2023-04-25T03:27:57;12.23;;;6.28;;
73296;SDS011;61524;50.938;11.396;2023-04-25T03:30:23;8.68;;;4.75;;
73296;SDS011;61524;50.938;11.396;2023-04-25T03:32:48;6.57;;;3.75;;
73296;SDS011;61524;50.938;11.396;2023-04-25T03:35:14;9.15;;;4.78;;
73296;SDS011;61524;50.938;11.396;2023-04-25T03:37:39;8.30;;;4.75;;
73296;SDS011;61524;50.938;11.396;2023-04-25T03:40:05;9.30;;;4.68;;
73296;SDS011;61524;50.938;11.396;2023-04-25T03:42:31;7.78;;;4.05;;
73296;SDS011;61524;50.938;11.396;2023-04-25T03:44:57;7.50;;;4.55;;
73296;SDS011;61524;50.938;11.396;2023-04-25T03:47:22;6.68;;;4.10;;
73296;SDS011;61524;50.938;11.396;2023-04-25T03:49:47;10.75;;;5.13;;
73296;SDS011;61524;50.938;11.396;2023-04-25T03:52:14;7.32;;;4.63;;
73296;SDS011;61524;50.938;11.396;2023-04-25T03:54:40;8.18;;;4.18;;
73296;SDS011;61524;50.938;11.396;2023-04-25T03:57:06;9.45;;;5.22;;
73296;SDS011;61524;50.938;11.396;2023-04-25T03:59:31;8.35;;;4.93;;
73296;SDS011;61524;50.938;11.396;2023-04-25T04:01:56;8.77;;;4.65;;
73296;SDS011;61524;50.938;11.396;2023-04-25T04:04:22;8.27;;;5.28;;
73296;SDS011;61524;50.938;11.396;2023-04-25T04:06:47;10.38;;;5.70;;
73296;SDS011;61524;50.938;11.396;2023-04-25T04:09:13;11.18;;;6.13;;
73296;SDS011;61524;50.938;11.396;2023-04-25T04:11:39;15.15;;;6.60;;
73296;SDS011;61524;50.938;11.396;2023-04-25T04:14:05;10.30;;;5.30;;
73296;SDS011;61524;50.938;11.396;2023-04-25T04:16:31;13.38;;;7.22;;
73296;SDS011;61524;50.938;11.396;2023-04-25T04:18:56;12.25;;;5.93;;
73296;SDS011;61524;50.938;11.396;2023-04-25T04:21:22;11.75;;;6.03;;
73296;SDS011;61524;50.938;11.396;2023-04-25T04:23:47;13.13;;;6.95;;
73296;SDS011;61524;50.938;11.396;2023-04-25T04:26:13;15.77;;;8.57;;
73296;SDS011;61524;50.938;11.396;2023-04-25T04:28:41;14.43;;;8.27;;
73296;SDS011;61524;50.938;11.396;2023-04-25T04:31:08;13.88;;;7.13;;
73296;SDS011;61524;50.938;11.396;2023-04-25T04:33:35;12.50;;;6.60;;
73296;SDS011;61524;50.938;11.396;2023-04-25T04:36:01;10.82;;;5.38;;
73296;SDS011;61524;50.938;11.396;2023-04-25T04:38:28;11.82;;;5.93;;
73296;SDS011;61524;50.938;11.396;2023-04-25T04:40:54;11.68;;;5.45;;
73296;SDS011;61524;50.938;11.396;2023-04-25T04:43:20;11.13;;;6.28;;
73296;SDS011;61524;50.938;11.396;2023-04-25T04:45:47;12.57;;;5.43;;
73296;SDS011;61524;50.938;11.396;2023-04-25T04:48:14;9.43;;;5.32;;
73296;SDS011;61524;50.938;11.396;2023-04-25T04:50:39;8.48;;;5.03;;
73296;SDS011;61524;50.938;11.396;2023-04-25T04:53:06;9.18;;;5.50;;
73296;SDS011;61524;50.938;11.396;2023-04-25T04:55:32;8.13;;;5.25;;
73296;SDS011;61524;50.938;11.396;2023-04-25T04:57:57;9.20;;;5.05;;
73296;SDS011;61524;50.938;11.396;2023-04-25T05:00:23;7.45;;;4.63;;
73296;SDS011;61524;50.938;11.396;2023-04-25T05:02:48;8.10;;;4.10;;
73296;SDS011;61524;50.938;11.396;2023-04-25T05:05:14;8.45;;;4.75;;
73296;SDS011;61524;50.938;11.396;2023-04-25T05:07:39;9.02;;;4.78;;
73296;SDS011;61524;50.938;11.396;2023-04-25T05:10:06;13.07;;;5.93;;
73296;SDS011;61524;50.938;11.396;2023-04-25T05:12:32;8.13;;;5.20;;
73296;SDS011;61524;50.938;11.396;2023-04-25T05:14:57;8.30;;;4.72;;
73296;SDS011;61524;50.938;11.396;2023-04-25T05:17:23;7.65;;;3.78;;
73296;SDS011;61524;50.938;11.396;2023-04-25T05:19:48;6.45;;;4.50;;
73296;SDS011;61524;50.938;11.396;2023-04-25T05:22:13;11.20;;;4.85;;
73296;SDS011;61524;50.938;11.396;2023-04-25T05:24:39;10.98;;;4.25;;
73296;SDS011;61524;50.938;11.396;2023-04-25T05:27:05;9.90;;;4.50;;
73296;SDS011;61524;50.938;11.396;2023-04-25T05:29:30;8.15;;;4.82;;
73296;SDS011;61524;50.938;11.396;2023-04-25T05:31:56;9.23;;;4.45;;
73296;SDS011;61524;50.938;11.396;2023-04-25T05:34:21;8.40;;;4.18;;
73296;SDS011;61524;50.938;11.396;2023-04-25T05:36:47;7.93;;;4.32;;
73296;SDS011;61524;50.938;11.396;2023-04-25T05:39:14;8.05;;;3.35;;
73296;SDS011;61524;50.938;11.396;2023-04-25T05:41:41;7.80;;;4.40;;
73296;SDS011;61524;50.938;11.396;2023-04-25T05:44:06;5.85;;;3.80;;
73296;SDS011;61524;50.938;11.396;2023-04-25T05:46:32;8.85;;;4.18;;
73296;SDS011;61524;50.938;11.396;2023-04-25T05:48:57;6.70;;;3.78;;
73296;SDS011;61524;50.938;11.396;2023-04-25T05:51:23;7.10;;;3.72;;
73296;SDS011;61524;50.938;11.396;2023-04-25T05:53:48;7.68;;;3.92;;
73296;SDS011;61524;50.938;11.396;2023-04-25T05:56:14;8.85;;;4.40;;
73296;SDS011;61524;50.938;11.396;2023-04-25T05:58:39;7.00;;;2.92;;
73296;SDS011;61524;50.938;11.396;2023-04-25T06:01:05;9.43;;;4.15;;
73296;SDS011;61524;50.938;11.396;2023-04-25T06:03:30;5.65;;;3.67;;
73296;SDS011;61524;50.938;11.396;2023-04-25T06:05:56;8.65;;;3.22;;
73296;SDS011;61524;50.938;11.396;2023-04-25T06:08:21;7.05;;;3.80;;
73296;SDS011;61524;50.938;11.396;2023-04-25T06:10:47;6.65;;;3.53;;
73296;SDS011;61524;50.938;11.396;2023-04-25T06:13:12;5.95;;;3.00;;
73296;SDS011;61524;50.938;11.396;2023-04-25T06:15:37;6.97;;;3.65;;
73296;SDS011;61524;50.938;11.396;2023-04-25T06:18:03;7.38;;;3.20;;
73296;SDS011;61524;50.938;11.396;2023-04-25T06:20:28;9.85;;;3.97;;
73296;SDS011;61524;50.938;11.396;2023-04-25T06:22:54;8.35;;;3.92;;
73296;SDS011;61524;50.938;11.396;2023-04-25T06:25:19;8.55;;;4.10;;
73296;SDS011;61524;50.938;11.396;2023-04-25T06:27:46;7.38;;;3.70;;
73296;SDS011;61524;50.938;11.396;2023-04-25T06:30:11;8.48;;;3.20;;
73296;SDS011;61524;50.938;11.396;2023-04-25T06:32:37;10.55;;;3.42;;
73296;SDS011;61524;50.938;11.396;2023-04-25T06:35:03;4.80;;;2.75;;
73296;SDS011;61524;50.938;11.396;2023-04-25T06:37:29;7.40;;;3.08;;
73296;SDS011;61524;50.938;11.396;2023-04-25T06:39:55;6.53;;;3.15;;
73296;SDS011;61524;50.938;11.396;2023-04-25T06:42:20;7.07;;;3.28;;
73296;SDS011;61524;50.938;11.396;2023-04-25T06:44:46;7.75;;;3.63;;
73296;SDS011;61524;50.938;11.396;2023-04-25T06:47:11;6.93;;;3.67;;
73296;SDS011;61524;50.938;11.396;2023-04-25T06:49:37;7.85;;;4.22;;
73296;SDS011;61524;50.938;11.396;2023-04-25T06:52:02;9.82;;;4.53;;
73296;SDS011;61524;50.938;11.396;2023-04-25T06:54:28;11.52;;;4.38;;
73296;SDS011;61524;50.938;11.396;2023-04-25T06:56:55;9.18;;;3.72;;
73296;SDS011;61524;50.938;11.396;2023-04-25T06:59:21;9.18;;;3.47;;
73296;SDS011;61524;50.938;11.396;2023-04-25T07:01:46;7.25;;;3.30;;
73296;SDS011;61524;50.938;11.396;2023-04-25T07:04:12;6.97;;;2.90;;
73296;SDS011;61524;50.938;11.396;2023-04-25T07:06:37;8.20;;;3.30;;
73296;SDS011;61524;50.938;11.396;2023-04-25T07:09:07;7.22;;;3.17;;
73296;SDS011;61524;50.938;11.396;2023-04-25T07:11:36;7.57;;;3.00;;
73296;SDS011;61524;50.938;11.396;2023-04-25T07:14:02;6.50;;;2.88;;
73296;SDS011;61524;50.938;11.396;2023-04-25T07:16:28;6.75;;;3.33;;
73296;SDS011;61524;50.938;11.396;2023-04-25T07:18:53;7.00;;;3.33;;
73296;SDS011;61524;50.938;11.396;2023-04-25T07:21:19;5.47;;;3.05;;
73296;SDS011;61524;50.938;11.396;2023-04-25T07:23:44;6.63;;;3.30;;
73296;SDS011;61524;50.938;11.396;2023-04-25T07:26:10;6.30;;;3.92;;
73296;SDS011;61524;50.938;11.396;2023-04-25T07:28:35;7.53;;;3.13;;
73296;SDS011;61524;50.938;11.396;2023-04-25T07:31:01;6.75;;;2.90;;
73296;SDS011;61524;50.938;11.396;2023-04-25T07:33:27;5.75;;;3.53;;
73296;SDS011;61524;50.938;11.396;2023-04-25T07:35:53;6.75;;;3.50;;
73296;SDS011;61524;50.938;11.396;2023-04-25T07:38:18;6.45;;;3.20;;
73296;SDS011;61524;50.938;11.396;2023-04-25T07:40:44;8.40;;;3.58;;
73296;SDS011;61524;50.938;11.396;2023-04-25T07:43:10;8.75;;;3.55;;
73296;SDS011;61524;50.938;11.396;2023-04-25T07:45:37;10.02;;;3.60;;
73296;SDS011;61524;50.938;11.396;2023-04-25T07:48:02;10.98;;;2.97;;
73296;SDS011;61524;50.938;11.396;2023-04-25T07:50:28;6.53;;;3.00;;
73296;SDS011;61524;50.938;11.396;2023-04-25T07:52:53;7.05;;;2.90;;
73296;SDS011;61524;50.938;11.396;2023-04-25T07:55:19;5.03;;;3.03;;
73296;SDS011;61524;50.938;11.396;2023-04-25T07:57:45;5.18;;;2.72;;
73296;SDS011;61524;50.938;11.396;2023-04-25T08:00:10;8.85;;;4.03;;
73296;SDS011;61524;50.938;11.396;2023-04-25T08:02:37;4.85;;;2.55;;
73296;SDS011;61524;50.938;11.396;2023-04-25T08:05:02;5.88;;;3.63;;
73296;SDS011;61524;50.938;11.396;2023-04-25T08:07:28;7.35;;;3.00;;
73296;SDS011;61524;50.938;11.396;2023-04-25T08:09:54;5.13;;;3.08;;
73296;SDS011;61524;50.938;11.396;2023-04-25T08:12:19;4.95;;;3.30;;
73296;SDS011;61524;50.938;11.396;2023-04-25T08:14:45;5.30;;;3.13;;
73296;SDS011;61524;50.938;11.396;2023-04-25T08:17:11;4.65;;;2.80;;
73296;SDS011;61524;50.938;11.396;2023-04-25T08:19:36;6.15;;;3.30;;
73296;SDS011;61524;50.938;11.396;2023-04-25T08:22:02;6.38;;;3.13;;
73296;SDS011;61524;50.938;11.396;2023-04-25T08:24:28;4.60;;;2.70;;
73296;SDS011;61524;50.938;11.396;2023-04-25T08:26:53;4.85;;;2.70;;
73296;SDS011;61524;50.938;11.396;2023-04-25T08:29:19;5.10;;;3.28;;
73296;SDS011;61524;50.938;11.396;2023-04-25T08:31:44;5.45;;;3.00;;
73296;SDS011;61524;50.938;11.396;2023-04-25T08:34:10;6.00;;;2.88;;
73296;SDS011;61524;50.938;11.396;2023-04-25T08:36:36;5.85;;;3.38;;
73296;SDS011;61524;50.938;11.396;2023-04-25T08:39:01;6.32;;;3.05;;
73296;SDS011;61524;50.938;11.396;2023-04-25T08:41:27;6.28;;;3.35;;
73296;SDS011;61524;50.938;11.396;2023-04-25T08:43:53;4.97;;;2.90;;
73296;SDS011;61524;50.938;11.396;2023-04-25T08:46:23;8.60;;;3.35;;
73296;SDS011;61524;50.938;11.396;2023-04-25T08:48:50;6.13;;;3.00;;
73296;SDS011;61524;50.938;11.396;2023-04-25T08:51:21;5.75;;;3.70;;
73296;SDS011;61524;50.938;11.396;2023-04-25T08:53:51;6.13;;;3.67;;
73296;SDS011;61524;50.938;11.396;2023-04-25T08:56:17;6.72;;;3.35;;
73296;SDS011;61524;50.938;11.396;2023-04-25T08:58:47;5.05;;;2.50;;
73296;SDS011;61524;50.938;11.396;2023-04-25T09:01:14;6.15;;;4.00;;
73296;SDS011;61524;50.938;11.396;2023-04-25T09:03:39;8.32;;;3.40;;
73296;SDS011;61524;50.938;11.396;2023-04-25T09:06:05;6.25;;;3.33;;
73296;SDS011;61524;50.938;11.396;2023-04-25T09:08:30;5.53;;;3.50;;
73296;SDS011;61524;50.938;11.396;2023-04-25T09:10:56;7.68;;;3.20;;
73296;SDS011;61524;50.938;11.396;2023-04-25T09:13:26;6.70;;;3.50;;
73296;SDS011;61524;50.938;11.396;2023-04-25T09:15:53;6.60;;;3.78;;
73296;SDS011;61524;50.938;11.396;2023-04-25T09:20:54;5.40;;;3.08;;
73296;SDS011;61524;50.938;11.396;2023-04-25T09:23:20;6.78;;;3.13;;
73296;SDS011;61524;50.938;11.396;2023-04-25T09:25:47;6.25;;;2.13;;
73296;SDS011;61524;50.938;11.396;2023-04-25T09:28:13;4.35;;;2.65;;
73296;SDS011;61524;50.938;11.396;2023-04-25T09:30:39;5.13;;;3.08;;
73296;SDS011;61524;50.938;11.396;2023-04-25T09:33:05;5.40;;;2.63;;
73296;SDS011;61524;50.938;11.396;2023-04-25T09:35:39;5.00;;;2.60;;
73296;SDS011;61524;50.938;11.396;2023-04-25T09:38:13;5.25;;;2.50;;
73296;SDS011;61524;50.938;11.396;2023-04-25T09:40:40;4.32;;;2.30;;
73296;SDS011;61524;50.938;11.396;2023-04-25T09:45:43;4.97;;;2.50;;
73296;SDS011;61524;50.938;11.396;2023-04-25T09:48:21;4.72;;;2.40;;
73296;SDS011;61524;50.938;11.396;2023-04-25T09:51:03;9.65;;;3.30;;
73296;SDS011;61524;50.938;11.396;2023-04-25T09:53:29;6.82;;;3.22;;
73296;SDS011;61524;50.938;11.396;2023-04-25T09:55:55;8.77;;;2.92;;
73296;SDS011;61524;50.938;11.396;2023-04-25T09:58:21;4.80;;;2.55;;
73296;SDS011;61524;50.938;11.396;2023-04-25T10:00:49;9.50;;;2.70;;
73296;SDS011;61524;50.938;11.396;2023-04-25T10:03:17;9.77;;;3.20;;
73296;SDS011;61524;50.938;11.396;2023-04-25T10:05:43;6.22;;;3.35;;
73296;SDS011;61524;50.938;11.396;2023-04-25T10:08:09;5.90;;;3.30;;
73296;SDS011;61524;50.938;11.396;2023-04-25T10:10:37;7.07;;;2.85;;
73296;SDS011;61524;50.938;11.396;2023-04-25T10:13:05;5.55;;;3.10;;
73296;SDS011;61524;50.938;11.396;2023-04-25T10:15:32;7.35;;;2.90;;
73296;SDS011;61524;50.938;11.396;2023-04-25T10:18:00;9.90;;;3.47;;
73296;SDS011;61524;50.938;11.396;2023-04-25T10:20:26;7.15;;;3.40;;
73296;SDS011;61524;50.938;11.396;2023-04-25T10:22:51;6.85;;;3.10;;
73296;SDS011;61524;50.938;11.396;2023-04-25T10:25:22;8.18;;;3.30;;
73296;SDS011;61524;50.938;11.396;2023-04-25T10:27:52;6.63;;;3.63;;
73296;SDS011;61524;50.938;11.396;2023-04-25T10:30:18;7.03;;;2.95;;
73296;SDS011;61524;50.938;11.396;2023-04-25T10:32:44;8.00;;;2.63;;
73296;SDS011;61524;50.938;11.396;2023-04-25T10:35:23;9.60;;;3.25;;
73296;SDS011;61524;50.938;11.396;2023-04-25T10:38:00;9.10;;;2.80;;
73296;SDS011;61524;50.938;11.396;2023-04-25T10:40:32;11.02;;;3.90;;
73296;SDS011;61524;50.938;11.396;2023-04-25T10:43:59;6.18;;;3.03;;
73296;SDS011;61524;50.938;11.396;2023-04-25T10:53:34;6.28;;;2.65;;
73296;SDS011;61524;50.938;11.396;2023-04-25T10:55:59;10.85;;;2.28;;
73296;SDS011;61524;50.938;11.396;2023-04-25T10:58:25;7.43;;;2.58;;
73296;SDS011;61524;50.938;11.396;2023-04-25T11:00:51;5.57;;;2.47;;
73296;SDS011;61524;50.938;11.396;2023-04-25T11:03:17;6.57;;;2.22;;
73296;SDS011;61524;50.938;11.396;2023-04-25T11:05:46;6.13;;;2.10;;
73296;SDS011;61524;50.938;11.396;2023-04-25T11:08:14;6.57;;;2.35;;
73296;SDS011;61524;50.938;11.396;2023-04-25T11:10:58;5.93;;;2.38;;
73296;SDS011;61524;50.938;11.396;2023-04-25T11:13:28;5.43;;;2.42;;
73296;SDS011;61524;50.938;11.396;2023-04-25T11:15:55;7.20;;;2.58;;
73296;SDS011;61524;50.938;11.396;2023-04-25T11:18:20;4.07;;;1.90;;
73296;SDS011;61524;50.938;11.396;2023-04-25T11:20:47;8.07;;;2.22;;
73296;SDS011;61524;50.938;11.396;2023-04-25T11:23:13;6.78;;;2.53;;
73296;SDS011;61524;50.938;11.396;2023-04-25T11:28:05;10.15;;;1.92;;
73296;SDS011;61524;50.938;11.396;2023-04-25T11:30:31;10.68;;;2.28;;
73296;SDS011;61524;50.938;11.396;2023-04-25T11:32:56;7.38;;;3.13;;
73296;SDS011;61524;50.938;11.396;2023-04-25T11:35:22;4.63;;;1.95;;
73296;SDS011;61524;50.938;11.396;2023-04-25T11:37:48;7.80;;;2.50;;
73296;SDS011;61524;50.938;11.396;2023-04-25T11:40:14;7.40;;;2.83;;
73296;SDS011;61524;50.938;11.396;2023-04-25T11:42:43;11.18;;;2.50;;
73296;SDS011;61524;50.938;11.396;2023-04-25T11:45:10;10.90;;;2.15;;
73296;SDS011;61524;50.938;11.396;2023-04-25T11:47:37;7.82;;;2.55;;
73296;SDS011;61524;50.938;11.396;2023-04-25T11:50:03;12.18;;;3.00;;
73296;SDS011;61524;50.938;11.396;2023-04-25T11:52:37;7.88;;;2.20;;
73296;SDS011;61524;50.938;11.396;2023-04-25T11:55:12;7.43;;;2.20;;
73296;SDS011;61524;50.938;11.396;2023-04-25T11:57:39;7.53;;;2.67;;
73296;SDS011;61524;50.938;11.396;2023-04-25T12:00:27;5.50;;;2.38;;
73296;SDS011;61524;50.938;11.396;2023-04-25T12:02:52;8.07;;;3.05;;
73296;SDS011;61524;50.938;11.396;2023-04-25T12:05:19;5.97;;;2.13;;
73296;SDS011;61524;50.938;11.396;2023-04-25T12:07:45;7.20;;;2.53;;
73296;SDS011;61524;50.938;11.396;2023-04-25T12:10:12;9.52;;;2.03;;
73296;SDS011;61524;50.938;11.396;2023-04-25T12:12:42;5.45;;;2.22;;
73296;SDS011;61524;50.938;11.396;2023-04-25T12:15:10;11.52;;;2.92;;
73296;SDS011;61524;50.938;11.396;2023-04-25T12:17:47;11.10;;;2.90;;
73296;SDS011;61524;50.938;11.396;2023-04-25T12:20:17;5.18;;;2.03;;
73296;SDS011;61524;50.938;11.396;2023-04-25T12:22:45;9.70;;;2.80;;
73296;SDS011;61524;50.938;11.396;2023-04-25T12:25:20;9.93;;;2.78;;
73296;SDS011;61524;50.938;11.396;2023-04-25T12:28:12;12.07;;;2.95;;
73296;SDS011;61524;50.938;11.396;2023-04-25T12:33:41;5.75;;;2.00;;
73296;SDS011;61524;50.938;11.396;2023-04-25T12:36:08;10.73;;;2.53;;
73296;SDS011;61524;50.938;11.396;2023-04-25T12:38:36;6.82;;;2.20;;
73296;SDS011;61524;50.938;11.396;2023-04-25T12:41:03;7.50;;;2.65;;
73296;SDS011;61524;50.938;11.396;2023-04-25T12:43:29;6.40;;;3.03;;
73296;SDS011;61524;50.938;11.396;2023-04-25T12:45:55;7.45;;;2.38;;
73296;SDS011;61524;50.938;11.396;2023-04-25T12:48:21;9.40;;;2.15;;
73296;SDS011;61524;50.938;11.396;2023-04-25T12:50:48;11.82;;;2.47;;
73296;SDS011;61524;50.938;11.396;2023-04-25T12:53:18;7.00;;;2.35;;
73296;SDS011;61524;50.938;11.396;2023-04-25T12:55:45;4.45;;;2.03;;
73296;SDS011;61524;50.938;11.396;2023-04-25T12:58:12;5.95;;;2.20;;
73296;SDS011;61524;50.938;11.396;2023-04-25T13:00:40;5.65;;;1.92;;
73296;SDS011;61524;50.938;11.396;2023-04-25T13:03:07;5.05;;;2.20;;
73296;SDS011;61524;50.938;11.396;2023-04-25T13:07:59;3.87;;;1.53;;
73296;SDS011;61524;50.938;11.396;2023-04-25T13:10:24;9.02;;;2.55;;
73296;SDS011;61524;50.938;11.396;2023-04-25T13:12:50;9.32;;;2.20;;
73296;SDS011;61524;50.938;11.396;2023-04-25T13:15:15;4.68;;;2.33;;
73296;SDS011;61524;50.938;11.396;2023-04-25T13:17:41;5.00;;;1.92;;
73296;SDS011;61524;50.938;11.396;2023-04-25T13:20:07;6.95;;;2.10;;
73296;SDS011;61524;50.938;11.396;2023-04-25T13:22:35;6.22;;;1.80;;
73296;SDS011;61524;50.938;11.396;2023-04-25T13:25:04;6.35;;;1.60;;
73296;SDS011;61524;50.938;11.396;2023-04-25T13:27:31;7.07;;;2.30;;
73296;SDS011;61524;50.938;11.396;2023-04-25T13:29:59;11.20;;;2.88;;
73296;SDS011;61524;50.938;11.396;2023-04-25T13:32:26;7.93;;;2.20;;
73296;SDS011;61524;50.938;11.396;2023-04-25T13:34:52;5.60;;;2.30;;
73296;SDS011;61524;50.938;11.396;2023-04-25T13:37:18;7.50;;;1.63;;
73296;SDS011;61524;50.938;11.396;2023-04-25T13:39:43;5.88;;;1.90;;
73296;SDS011;61524;50.938;11.396;2023-04-25T13:42:08;5.43;;;2.08;;
73296;SDS011;61524;50.938;11.396;2023-04-25T13:44:34;4.70;;;1.90;;
73296;SDS011;61524;50.938;11.396;2023-04-25T13:46:59;7.10;;;2.38;;
73296;SDS011;61524;50.938;11.396;2023-04-25T13:49:25;8.90;;;2.10;;
73296;SDS011;61524;50.938;11.396;2023-04-25T13:51:51;6.18;;;1.67;;
73296;SDS011;61524;50.938;11.396;2023-04-25T13:54:17;4.60;;;1.77;;
73296;SDS011;61524;50.938;11.396;2023-04-25T13:56:42;4.43;;;1.65;;
73296;SDS011;61524;50.938;11.396;2023-04-25T13:59:08;6.35;;;2.08;;
73296;SDS011;61524;50.938;11.396;2023-04-25T14:01:33;14.20;;;2.88;;
73296;SDS011;61524;50.938;11.396;2023-04-25T14:04:00;7.90;;;1.90;;
73296;SDS011;61524;50.938;11.396;2023-04-25T14:06:29;6.63;;;1.45;;
73296;SDS011;61524;50.938;11.396;2023-04-25T14:08:55;5.88;;;1.77;;
73296;SDS011;61524;50.938;11.396;2023-04-25T14:11:21;3.95;;;1.67;;
73296;SDS011;61524;50.938;11.396;2023-04-25T14:13:46;4.45;;;1.67;;
73296;SDS011;61524;50.938;11.396;2023-04-25T14:16:14;4.22;;;1.48;;
73296;SDS011;61524;50.938;11.396;2023-04-25T14:18:40;4.93;;;1.30;;
73296;SDS011;61524;50.938;11.396;2023-04-25T14:21:05;5.45;;;1.88;;
73296;SDS011;61524;50.938;11.396;2023-04-25T14:23:31;7.90;;;1.73;;
73296;SDS011;61524;50.938;11.396;2023-04-25T14:25:56;4.72;;;1.23;;
73296;SDS011;61524;50.938;11.396;2023-04-25T14:28:21;4.75;;;1.52;;
73296;SDS011;61524;50.938;11.396;2023-04-25T14:30:47;3.97;;;1.88;;
73296;SDS011;61524;50.938;11.396;2023-04-25T14:33:12;4.13;;;1.30;;
73296;SDS011;61524;50.938;11.396;2023-04-25T14:35:38;3.78;;;1.42;;
73296;SDS011;61524;50.938;11.396;2023-04-25T14:38:04;6.88;;;2.22;;
73296;SDS011;61524;50.938;11.396;2023-04-25T14:40:30;4.45;;;1.65;;
73296;SDS011;61524;50.938;11.396;2023-04-25T14:42:55;8.05;;;2.42;;
73296;SDS011;61524;50.938;11.396;2023-04-25T14:45:21;3.40;;;1.42;;
73296;SDS011;61524;50.938;11.396;2023-04-25T14:47:46;4.85;;;1.95;;
73296;SDS011;61524;50.938;11.396;2023-04-25T14:50:12;6.75;;;2.15;;